Time;durP1;ratioP1;P1;durP2;ratioP2;P2;SDS_P1;SDS_P2;PMS_P1;PMS_P2;Temp;Humidity;BMP_temperature;BMP_pressure;BME280_temperature;BME280_humidity;BME280_pressure;Samples;Min_cycle;Max_cycle;Signal;HPM_P1;HPM_P2
2022/08/09 00:00:57;;;;;;;5.80;4.80;;;16.90;99.90;16.30;101541;;;;567973;247;24097;-82
2022/08/09 00:03:25;;;;;;;6.17;4.83;;;16.90;99.90;16.30;101554;;;;567912;247;24111;-82
2022/08/09 00:05:53;;;;;;;5.73;5.23;;;16.90;99.90;16.30;101543;;;;567924;247;24094;-82
2022/08/09 00:08:21;;;;;;;5.30;4.80;;;16.90;99.90;16.30;101545;;;;568361;247;24116;-83
2022/08/09 00:10:48;;;;;;;8.73;5.70;;;16.90;99.90;16.40;101550;;;;573524;247;24122;-81
2022/08/09 00:13:17;;;;;;;6.93;5.00;;;16.90;99.90;16.30;101548;;;;568418;247;24137;-82
2022/08/09 00:15:46;;;;;;;10.67;5.27;;;16.90;99.90;16.30;101543;;;;568114;247;24097;-83
2022/08/09 00:18:14;;;;;;;7.10;4.57;;;16.90;99.90;16.30;101543;;;;573570;247;26312;-84
2022/08/09 00:20:45;;;;;;;9.63;5.00;;;16.90;99.90;16.30;101539;;;;568266;247;24121;-84
2022/08/09 00:23:10;;;;;;;8.77;5.17;;;16.90;99.90;16.30;101545;;;;573381;247;24094;-84
2022/08/09 00:25:38;;;;;;;7.10;5.03;;;16.90;99.90;16.30;101541;;;;568502;247;24114;-83
2022/08/09 00:28:06;;;;;;;7.28;6.15;;;16.90;99.90;16.30;101546;;;;563553;247;35364;-82
2022/08/09 00:30:34;;;;;;;8.40;5.20;;;16.90;99.90;16.30;101534;;;;568470;247;24070;-83
2022/08/09 00:33:05;;;;;;;5.40;4.70;;;16.80;99.90;16.30;101541;;;;569301;246;24097;-79
2022/08/09 00:35:33;;;;;;;9.33;5.20;;;16.80;99.90;16.30;101528;;;;573976;246;24164;-82
2022/08/09 00:37:59;;;;;;;6.00;5.40;;;16.90;99.90;16.30;101535;;;;573803;247;24149;-79
2022/08/09 00:40:26;;;;;;;8.47;5.10;;;16.80;99.90;16.30;101527;;;;568582;247;24195;-79
2022/08/09 00:42:54;;;;;;;7.77;4.93;;;16.90;99.90;16.30;101528;;;;568560;247;24092;-77
2022/08/09 00:45:22;;;;;;;6.10;5.10;;;16.90;99.90;16.30;101528;;;;568330;247;24131;-77
2022/08/09 00:47:50;;;;;;;6.50;5.07;;;16.90;99.90;16.30;101528;;;;568339;247;24101;-77
2022/08/09 00:50:18;;;;;;;8.43;4.97;;;16.80;99.90;16.30;101527;;;;567799;247;24133;-78
2022/08/09 00:52:46;;;;;;;7.20;5.30;;;16.80;99.90;16.20;101529;;;;568590;247;24104;-77
2022/08/09 00:55:14;;;;;;;9.40;5.50;;;16.80;99.90;16.20;101531;;;;568182;247;24072;-78
2022/08/09 00:57:43;;;;;;;6.53;5.60;;;16.80;99.90;16.20;101524;;;;568097;247;24109;-74
2022/08/09 01:00:15;;;;;;;8.47;5.70;;;16.80;99.90;16.20;101529;;;;568187;247;24069;-77
2022/08/09 01:02:38;;;;;;;8.77;5.27;;;16.70;99.90;16.20;101523;;;;575281;247;24090;-78
2022/08/09 01:05:12;;;;;;;5.97;5.00;;;16.70;99.90;16.20;101526;;;;567797;247;24092;-77
2022/08/09 01:07:44;;;;;;;6.70;5.63;;;16.70;99.90;16.20;101532;;;;568000;247;24103;-76
2022/08/09 01:10:38;;;;;;;6.83;5.23;;;16.70;99.90;16.20;101535;;;;567709;247;26290;-78
2022/08/09 01:13:30;;;;;;;5.77;5.27;;;16.70;99.90;16.20;101533;;;;573366;247;24094;-77
2022/08/09 01:16:01;;;;;;;6.30;5.53;;;16.70;99.90;16.20;101530;;;;568212;247;24151;-81
2022/08/09 01:18:29;;;;;;;7.90;5.80;;;16.70;99.90;16.20;101531;;;;573206;247;24097;-78
2022/08/09 01:21:36;;;;;;;7.50;5.47;;;16.70;99.90;16.20;101529;;;;568556;247;24088;-82
2022/08/09 01:24:16;;;;;;;6.77;5.43;;;16.70;99.90;16.10;101525;;;;568814;247;24085;-83
2022/08/09 01:26:53;;;;;;;6.13;5.37;;;16.70;99.90;16.10;101534;;;;568217;247;24116;-83
2022/08/09 01:29:33;;;;;;;6.03;5.43;;;16.70;99.90;16.10;101524;;;;573650;247;24111;-84
2022/08/09 01:32:01;;;;;;;7.53;4.90;;;16.70;99.90;16.20;101531;;;;567773;247;24107;-80
2022/08/09 01:34:30;;;;;;;7.73;5.60;;;16.70;99.90;16.20;101530;;;;573026;247;24088;-80
2022/08/09 01:36:58;;;;;;;6.60;5.53;;;16.70;99.90;16.20;101529;;;;568029;247;24165;-81
2022/08/09 01:39:26;;;;;;;9.00;5.37;;;16.70;99.90;16.20;101529;;;;571347;247;24113;-83
2022/08/09 01:41:57;;;;;;;7.50;5.90;;;16.70;99.90;16.20;101528;;;;582356;247;24081;-79
2022/08/09 01:44:22;;;;;;;6.67;5.50;;;16.70;99.90;16.20;101534;;;;572633;246;24137;-83
2022/08/09 01:46:52;;;;;;;6.27;5.47;;;16.70;99.90;16.20;101528;;;;574408;247;24132;-83
2022/08/09 01:49:17;;;;;;;9.67;5.60;;;16.70;99.90;16.20;101527;;;;568745;247;24127;-84
2022/08/09 01:51:48;;;;;;;8.80;4.93;;;16.70;99.90;16.20;101525;;;;573922;247;24141;-81
2022/08/09 01:54:16;;;;;;;8.93;5.23;;;16.70;99.90;16.20;101524;;;;573849;247;24150;-84
2022/08/09 01:56:45;;;;;;;5.43;4.87;;;16.70;99.90;16.20;101523;;;;568540;247;24115;-80
2022/08/09 01:59:13;;;;;;;6.23;5.63;;;16.70;99.90;16.20;101525;;;;574651;246;24147;-81
2022/08/09 02:01:44;;;;;;;6.10;4.57;;;16.70;99.90;16.20;101518;;;;574739;247;24131;-81
2022/08/09 02:04:10;;;;;;;8.77;5.30;;;16.70;99.90;16.20;101527;;;;568993;247;24124;-81
2022/08/09 02:09:24;;;;;;;7.17;5.30;;;16.70;99.90;16.20;101527;;;;569160;247;24105;-78
2022/08/09 02:11:52;;;;;;;12.10;5.87;;;16.70;99.90;16.20;101529;;;;568591;247;24093;-79
2022/08/09 02:14:19;;;;;;;11.80;6.23;;;16.70;99.90;16.20;101526;;;;573768;247;24114;-79
2022/08/09 02:16:47;;;;;;;10.97;5.77;;;16.80;99.90;16.20;101529;;;;573733;247;24082;-82
2022/08/09 02:19:18;;;;;;;8.00;5.57;;;16.80;99.90;16.20;101527;;;;573622;247;24096;-83
2022/08/09 02:21:43;;;;;;;9.87;5.87;;;16.80;99.90;16.20;101526;;;;573294;247;24082;-81
2022/08/09 02:24:11;;;;;;;9.60;5.53;;;16.80;99.90;16.20;101534;;;;573388;246;24094;-79
2022/08/09 02:26:40;;;;;;;12.87;6.53;;;16.80;99.90;16.20;101528;;;;573385;247;24139;-78
2022/08/09 02:29:21;;;;;;;12.30;6.13;;;16.80;99.90;16.20;101528;;;;568348;247;24121;-79
2022/08/09 02:31:48;;;;;;;10.83;6.17;;;16.80;99.90;16.20;101529;;;;572959;247;24086;-80
2022/08/09 02:34:19;;;;;;;9.73;5.57;;;16.80;99.90;16.20;101531;;;;573141;247;24170;-78
2022/08/09 02:36:47;;;;;;;7.33;5.53;;;16.70;99.90;16.20;101524;;;;570286;246;24136;-81
2022/08/09 02:39:15;;;;;;;6.07;4.97;;;16.70;99.90;16.20;101528;;;;573156;247;24081;-82
2022/08/09 02:41:49;;;;;;;9.23;6.20;;;16.80;99.90;16.20;101532;;;;573198;246;24122;-78
2022/08/09 02:44:20;;;;;;;8.60;5.43;;;16.70;99.90;16.20;101529;;;;567299;247;24177;-78
2022/08/09 02:46:54;;;;;;;10.50;7.00;;;16.70;99.90;16.20;101529;;;;573011;247;24081;-82
2022/08/09 02:49:19;;;;;;;6.90;5.37;;;16.70;99.90;16.20;101531;;;;567399;247;24173;-82
2022/08/09 02:51:53;;;;;;;7.43;5.50;;;16.70;99.90;16.20;101541;;;;567728;247;24238;-79
2022/08/09 02:54:24;;;;;;;6.87;5.13;;;16.70;99.90;16.20;101534;;;;567525;246;24106;-76
2022/08/09 02:56:49;;;;;;;9.67;6.40;;;16.70;99.90;16.20;101530;;;;574204;247;24214;-76
2022/08/09 02:59:16;;;;;;;7.27;5.77;;;16.70;99.90;16.20;101543;;;;568605;247;24122;-80
2022/08/09 03:01:44;;;;;;;6.07;5.13;;;16.70;99.90;16.20;101545;;;;573995;247;24119;-80
2022/08/09 03:04:12;;;;;;;7.13;5.83;;;16.70;99.90;16.20;101539;;;;573682;247;24116;-80
2022/08/09 03:06:43;;;;;;;7.60;5.10;;;16.70;99.90;16.20;101545;;;;573762;247;24160;-82
2022/08/09 03:09:08;;;;;;;7.60;5.93;;;16.70;99.90;16.20;101541;;;;573873;247;24133;-79
2022/08/09 03:11:39;;;;;;;6.33;5.30;;;16.70;99.90;16.20;101543;;;;573988;247;24143;-81
2022/08/09 03:14:04;;;;;;;5.50;4.83;;;16.70;99.90;16.20;101546;;;;568076;247;24091;-82
2022/08/09 03:16:35;;;;;;;6.20;5.60;;;16.70;99.90;16.20;101549;;;;571333;247;24218;-82
2022/08/09 03:19:00;;;;;;;6.93;5.67;;;16.70;99.90;16.10;101553;;;;568193;247;24124;-78
2022/08/09 03:21:28;;;;;;;5.70;5.20;;;16.70;99.90;16.10;101554;;;;573601;247;24081;-79
2022/08/09 03:23:56;;;;;;;9.83;5.97;;;16.70;99.90;16.10;101548;;;;573690;247;24115;-78
2022/08/09 03:26:27;;;;;;;7.63;5.77;;;16.70;99.90;16.10;101550;;;;568352;247;24120;-79
2022/08/09 03:28:54;;;;;;;7.70;5.73;;;16.70;99.90;16.10;101547;;;;567894;247;24188;-77
2022/08/09 03:31:20;;;;;;;6.90;5.40;;;16.70;99.90;16.10;101550;;;;568151;247;24110;-77
2022/08/09 03:33:50;;;;;;;6.90;5.27;;;16.70;99.90;16.10;101551;;;;572921;247;24108;-78
2022/08/09 03:36:20;;;;;;;6.13;5.43;;;16.70;99.90;16.10;101542;;;;573090;246;24088;-78
2022/08/09 03:38:45;;;;;;;6.27;5.67;;;16.70;99.90;16.10;101546;;;;567245;247;24100;-78
2022/08/09 03:41:17;;;;;;;10.10;5.97;;;16.70;99.90;16.20;101548;;;;567953;247;24154;-82
2022/08/09 03:43:42;;;;;;;5.70;5.20;;;16.70;99.90;16.20;101544;;;;573157;247;24086;-81
2022/08/09 03:46:10;;;;;;;6.10;5.50;;;16.70;99.90;16.20;101549;;;;581745;246;24143;-82
2022/08/09 03:48:37;;;;;;;6.60;5.90;;;16.80;99.90;16.20;101552;;;;567858;247;24175;-77
2022/08/09 03:51:08;;;;;;;5.67;5.07;;;16.80;99.90;16.30;101547;;;;567852;247;24088;-80
2022/08/09 03:53:38;;;;;;;8.27;5.40;;;16.90;99.90;16.30;101547;;;;567663;249;24097;-80
2022/08/09 03:56:06;;;;;;;13.70;6.03;;;16.90;99.90;16.40;101548;;;;566881;247;24089;-82
2022/08/09 03:58:35;;;;;;;8.97;5.47;;;16.90;99.90;16.40;101548;;;;570762;247;24152;-83
2022/08/09 04:00:59;;;;;;;6.00;5.30;;;17.00;99.90;16.50;101553;;;;567597;249;24096;-78
2022/08/09 04:03:27;;;;;;;16.03;5.90;;;17.00;99.90;16.50;101550;;;;567315;249;24134;-78
2022/08/09 04:05:55;;;;;;;8.20;5.03;;;17.10;99.90;16.50;101550;;;;567792;248;24212;-77
2022/08/09 04:08:23;;;;;;;10.73;5.73;;;17.10;99.90;16.60;101551;;;;568909;247;24080;-79
2022/08/09 04:10:50;;;;;;;32.33;6.53;;;17.10;99.90;16.60;101551;;;;569073;247;24120;-77
2022/08/09 04:13:18;;;;;;;22.13;6.30;;;17.20;99.90;16.70;101555;;;;568793;247;24097;-78
2022/08/09 04:15:46;;;;;;;40.83;8.30;;;17.20;99.90;16.70;101556;;;;568883;247;24111;-78
2022/08/09 04:18:14;;;;;;;29.53;7.27;;;17.30;99.90;16.80;101561;;;;568721;247;24143;-78
2022/08/09 04:20:42;;;;;;;33.87;7.70;;;17.30;99.90;16.80;101557;;;;568673;247;24113;-78
2022/08/09 04:23:10;;;;;;;17.13;6.00;;;17.40;99.90;16.80;101572;;;;568547;247;24086;-77
2022/08/09 04:25:38;;;;;;;9.83;6.20;;;17.40;99.90;16.90;101571;;;;568124;247;24136;-77
2022/08/09 04:28:06;;;;;;;10.10;5.40;;;17.40;99.90;16.90;101570;;;;568382;247;24083;-78
2022/08/09 04:30:34;;;;;;;34.77;7.53;;;17.50;99.90;17.00;101571;;;;568163;247;24087;-77
2022/08/09 04:33:02;;;;;;;37.50;7.50;;;17.50;99.90;17.00;101572;;;;568131;247;24149;-77
2022/08/09 04:35:30;;;;;;;28.47;7.17;;;17.60;99.90;17.00;101575;;;;568128;247;24073;-79
2022/08/09 04:37:58;;;;;;;14.50;6.80;;;17.60;99.90;17.10;101574;;;;567616;247;24174;-77
2022/08/09 04:40:47;;;;;;;16.70;5.87;;;17.60;99.90;17.10;101586;;;;567896;247;24247;-77
2022/08/09 04:42:53;;;;;;;34.50;8.10;;;17.70;99.90;17.20;101584;;;;566381;247;24142;-77
2022/08/09 04:45:21;;;;;;;24.93;6.10;;;17.70;99.90;17.30;101585;;;;567638;247;24124;-77
2022/08/09 04:47:49;;;;;;;18.83;7.03;;;17.80;99.90;17.30;101584;;;;567671;247;24107;-77
2022/08/09 04:50:17;;;;;;;10.80;5.70;;;17.90;99.90;17.40;101580;;;;581713;247;24105;-79
2022/08/09 04:52:45;;;;;;;9.35;7.15;;;17.90;99.90;17.50;101579;;;;562981;247;35433;-78
2022/08/09 04:55:14;;;;;;;6.23;5.57;;;18.00;99.90;17.50;101582;;;;567269;247;24095;-81
2022/08/09 04:57:41;;;;;;;8.53;5.50;;;18.10;99.90;17.60;101585;;;;567524;247;24154;-85
2022/08/09 05:00:09;;;;;;;5.80;5.23;;;18.10;99.90;17.70;101586;;;;567789;247;24093;-83
2022/08/09 05:02:37;;;;;;;23.60;6.40;;;18.20;99.90;17.80;101587;;;;573051;246;24090;-85
2022/08/09 05:05:09;;;;;;;17.17;5.93;;;18.30;99.90;17.90;101581;;;;573200;247;24082;-80
2022/08/09 05:07:33;;;;;;;13.67;5.90;;;18.40;99.90;18.00;101583;;;;567314;247;24120;-83
2022/08/09 05:10:01;;;;;;;13.67;5.30;;;18.60;99.90;18.10;101582;;;;567951;247;24193;-80
2022/08/09 05:12:32;;;;;;;28.60;8.03;;;18.70;99.90;18.20;101588;;;;568116;247;24087;-77
2022/08/09 05:14:57;;;;;;;24.30;5.70;;;18.80;99.90;18.30;101588;;;;572858;247;24095;-79
2022/08/09 05:17:25;;;;;;;11.97;5.23;;;18.80;99.90;18.40;101590;;;;568578;245;25133;-77
2022/08/09 05:19:53;;;;;;;21.33;5.23;;;18.90;99.90;18.50;101597;;;;568946;247;24129;-78
2022/08/09 05:22:21;;;;;;;33.60;6.37;;;19.00;99.90;18.50;101602;;;;568765;247;24068;-79
2022/08/09 05:24:49;;;;;;;8.23;4.27;;;19.10;99.90;18.70;101599;;;;568510;247;24137;-78
2022/08/09 05:27:17;;;;;;;18.10;5.17;;;19.20;99.90;18.70;101599;;;;568110;247;24073;-78
2022/08/09 05:29:45;;;;;;;7.93;4.30;;;19.30;99.90;18.80;101604;;;;568242;247;24088;-77
2022/08/09 05:32:13;;;;;;;6.57;4.20;;;19.40;99.90;18.90;101609;;;;568286;247;24128;-80
2022/08/09 05:34:41;;;;;;;5.57;4.60;;;19.40;99.90;19.00;101599;;;;573851;247;24146;-79
2022/08/09 05:37:09;;;;;;;8.17;4.20;;;19.70;99.90;19.10;101613;;;;568470;247;23143;-79
2022/08/09 05:39:37;;;;;;;7.53;4.50;;;19.80;99.90;19.30;101608;;;;568203;247;25201;-79
2022/08/09 05:42:08;;;;;;;3.73;3.43;;;19.80;99.90;19.50;101604;;;;573590;247;23099;-78
2022/08/09 05:44:33;;;;;;;22.20;5.83;;;20.00;99.90;19.60;101609;;;;581161;242;23145;-77
2022/08/09 05:47:01;;;;;;;10.97;4.63;;;20.20;99.90;19.80;101609;;;;568338;247;23106;-79
2022/08/09 05:49:29;;;;;;;4.83;3.50;;;20.30;99.90;20.00;101613;;;;568393;247;23095;-78
2022/08/09 05:51:57;;;;;;;6.87;4.10;;;20.50;99.90;20.20;101605;;;;568267;247;23114;-81
2022/08/09 05:54:25;;;;;;;10.07;4.53;;;20.70;99.90;20.50;101606;;;;568274;247;23099;-82
2022/08/09 05:56:53;;;;;;;16.60;4.63;;;21.00;99.90;20.80;101617;;;;573523;247;24152;-83
2022/08/09 05:59:21;;;;;;;16.23;4.07;;;21.40;99.90;21.30;101614;;;;568066;247;24126;-80
2022/08/09 06:01:49;;;;;;;9.27;4.37;;;21.80;99.90;21.80;101608;;;;567772;247;24086;-83
2022/08/09 06:04:17;;;;;;;4.47;4.07;;;22.20;99.90;22.30;101614;;;;567961;247;24124;-84
2022/08/09 06:06:45;;;;;;;5.43;3.30;;;22.80;99.90;23.10;101618;;;;567740;247;24190;-79
2022/08/09 06:09:13;;;;;;;6.43;4.60;;;23.50;99.90;23.90;101625;;;;567378;247;23159;-81
2022/08/09 06:11:40;;;;;;;6.17;4.07;;;24.30;99.90;24.60;101620;;;;568282;247;24089;-81
2022/08/09 06:14:08;;;;;;;4.00;3.60;;;25.00;99.90;25.30;101619;;;;568247;247;24081;-83
2022/08/09 06:16:37;;;;;;;4.60;3.77;;;26.30;99.90;25.90;101620;;;;568289;247;23106;-82
2022/08/09 06:19:06;;;;;;;7.63;3.80;;;27.30;99.90;27.00;101628;;;;573538;247;23100;-83
2022/08/09 06:21:34;;;;;;;14.23;4.67;;;27.30;99.90;28.00;101630;;;;568078;247;24130;-81
2022/08/09 06:24:02;;;;;;;18.70;4.33;;;28.40;99.90;28.20;101627;;;;567945;247;23094;-79
2022/08/09 06:26:29;;;;;;;10.97;5.47;;;28.80;97.90;28.60;101625;;;;568218;247;23098;-82
2022/08/09 06:28:57;;;;;;;7.87;3.50;;;29.20;96.20;29.20;101630;;;;568688;245;23135;-82
2022/08/09 06:31:25;;;;;;;4.95;3.25;;;29.70;94.00;29.50;101629;;;;574871;247;24197;-83
2022/08/09 06:33:53;;;;;;;9.18;2.67;;;30.00;88.80;29.50;101632;;;;569188;247;23186;-83
2022/08/09 06:36:21;;;;;;;8.80;2.67;;;30.20;83.30;29.40;101640;;;;568990;247;23202;-82
2022/08/09 06:38:49;;;;;;;4.18;1.60;;;30.20;80.50;29.40;101642;;;;568452;247;23113;-84
2022/08/09 06:41:17;;;;;;;2.12;2.03;;;30.20;76.10;29.20;101645;;;;568928;247;23136;-83
2022/08/09 06:43:45;;;;;;;2.47;2.28;;;30.00;76.10;28.90;101646;;;;573864;247;23247;-81
2022/08/09 06:46:13;;;;;;;5.82;2.65;;;29.80;75.70;28.70;101642;;;;573938;247;23184;-80
2022/08/09 06:48:41;;;;;;;13.02;3.12;;;29.30;76.70;28.50;101644;;;;573728;247;23075;-81
2022/08/09 06:51:12;;;;;;;7.82;3.25;;;29.30;76.70;28.80;101651;;;;573729;247;24082;-80
2022/08/09 06:53:41;;;;;;;9.27;2.90;;;29.40;77.80;29.30;101641;;;;573645;246;23092;-84
2022/08/09 06:56:06;;;;;;;7.60;3.05;;;30.40;74.50;30.20;101649;;;;568321;247;23129;-82
2022/08/09 06:58:34;;;;;;;3.37;2.85;;;30.50;74.60;32.10;101651;;;;575982;246;23100;-79
2022/08/09 07:01:02;;;;;;;3.55;2.05;;;32.10;70.90;33.40;101657;;;;567800;247;24109;-82
2022/08/09 07:03:33;;;;;;;3.97;2.30;;;35.00;61.30;35.00;101660;;;;567907;247;23109;-80
2022/08/09 07:06:02;;;;;;;6.12;2.25;;;34.80;58.20;33.90;101669;;;;567496;247;23164;-79
2022/08/09 07:08:27;;;;;;;5.78;2.28;;;34.80;58.10;32.40;101668;;;;567343;247;25238;-80
2022/08/09 07:10:55;;;;;;;8.05;2.55;;;33.80;58.10;31.40;101665;;;;567919;247;23145;-79
2022/08/09 07:13:23;;;;;;;2.78;2.12;;;32.70;60.30;31.80;101669;;;;567945;247;23134;-81
2022/08/09 07:15:51;;;;;;;4.85;2.45;;;32.40;61.30;31.80;101665;;;;568129;247;23092;-79
2022/08/09 07:18:19;;;;;;;25.67;3.85;;;32.40;61.60;32.40;101675;;;;568333;247;23094;-80
2022/08/09 07:20:48;;;;;;;9.38;3.05;;;32.70;61.00;34.10;101680;;;;568212;247;23088;-79
2022/08/09 07:23:15;;;;;;;6.72;2.20;;;33.90;58.50;36.30;101677;;;;567908;247;24113;-80
2022/08/09 07:25:47;;;;;;;3.53;1.87;;;37.80;51.00;37.70;101682;;;;568181;247;23106;-83
2022/08/09 07:28:11;;;;;;;17.33;3.62;;;37.70;50.90;38.00;101681;;;;573488;247;23150;-81
2022/08/09 07:30:39;;;;;;;5.25;2.00;;;38.40;49.90;38.20;101690;;;;568133;247;23095;-78
2022/08/09 07:33:08;;;;;;;1.60;1.50;;;38.70;48.20;38.00;101682;;;;567925;247;23099;-78
2022/08/09 07:35:36;;;;;;;2.45;2.00;;;38.70;48.20;38.30;101677;;;;567797;247;23228;-79
2022/08/09 07:38:04;;;;;;;2.22;2.10;;;38.80;48.70;39.50;101686;;;;568126;247;23117;-81
2022/08/09 07:40:31;;;;;;;6.32;2.00;;;39.60;47.00;40.40;101692;;;;568270;245;23130;-81
2022/08/09 07:42:59;;;;;;;3.87;1.90;;;40.60;45.20;40.00;101685;;;;569328;247;23218;-82
2022/08/09 07:45:27;;;;;;;2.28;2.10;;;40.60;44.70;40.90;101694;;;;569050;247;23107;-79
2022/08/09 07:47:55;;;;;;;5.78;2.25;;;41.20;43.90;42.20;101703;;;;563665;247;35277;-80
2022/08/09 07:50:23;;;;;;;2.15;1.75;;;42.40;42.40;43.20;101706;;;;574022;247;23122;-80
2022/08/09 07:52:51;;;;;;;2.85;1.80;;;43.50;41.40;44.00;101701;;;;573552;246;24126;-80
2022/08/09 07:55:19;;;;;;;29.02;3.83;;;44.50;40.20;45.20;101710;;;;568410;247;23083;-80
2022/08/09 07:57:47;;;;;;;6.72;2.15;;;45.50;39.30;46.00;101703;;;;568290;247;23130;-81
2022/08/09 08:00:17;;;;;;;1.50;1.40;;;46.40;38.20;44.70;101710;;;;571114;247;23092;-82
2022/08/09 08:02:45;;;;;;;4.82;1.90;;;45.70;38.30;42.00;101712;;;;568319;247;24157;-81
2022/08/09 08:05:17;;;;;;;5.82;2.08;;;44.10;38.30;40.30;101710;;;;568327;247;23157;-84
2022/08/09 08:07:41;;;;;;;9.13;2.28;;;42.20;40.60;41.50;101704;;;;573586;247;23160;-79
2022/08/09 08:10:09;;;;;;;13.85;3.00;;;42.10;40.60;41.40;101707;;;;573941;247;23115;-82
2022/08/09 08:12:37;;;;;;;4.12;1.80;;;42.20;40.30;39.70;101710;;;;574224;247;23137;-81
2022/08/09 08:15:05;;;;;;;3.05;1.73;;;40.80;41.10;39.40;101702;;;;569137;247;23140;-80
2022/08/09 08:17:33;;;;;;;1.55;1.45;;;40.30;41.60;40.20;101703;;;;573942;247;23215;-81
2022/08/09 08:20:01;;;;;;;34.20;4.53;;;40.60;41.70;40.60;101716;;;;568478;247;23134;-82
2022/08/09 08:22:29;;;;;;;5.45;1.98;;;41.10;40.90;40.80;101708;;;;568242;247;24191;-84
2022/08/09 08:24:57;;;;;;;6.35;1.87;;;41.00;40.30;41.90;101706;;;;568314;247;23139;-81
2022/08/09 08:27:25;;;;;;;3.28;1.60;;;42.00;40.10;43.10;101700;;;;568535;247;23099;-85
2022/08/09 08:29:53;;;;;;;8.07;2.40;;;43.20;38.50;44.30;101710;;;;569002;247;23075;-83
2022/08/09 08:32:22;;;;;;;3.05;1.70;;;44.50;38.00;44.80;101704;;;;573258;247;23115;-85
2022/08/09 08:34:51;;;;;;;1.67;1.58;;;46.00;35.80;45.50;101706;;;;573226;247;23116;-85
2022/08/09 08:37:19;;;;;;;1.62;1.52;;;46.70;35.50;46.20;101700;;;;573734;247;23124;-85
2022/08/09 08:39:48;;;;;;;1.60;1.50;;;47.60;35.00;47.20;101705;;;;573446;247;23191;-83
2022/08/09 08:42:16;;;;;;;1.52;1.33;;;47.50;34.90;48.20;101700;;;;567534;247;23132;-79
2022/08/09 08:44:44;;;;;;;12.35;2.75;;;48.50;33.80;48.60;101694;;;;567465;247;23111;-80
2022/08/09 08:47:13;;;;;;;7.30;2.15;;;49.30;33.10;48.90;101697;;;;573022;247;23086;-80
2022/08/09 08:49:40;;;;;;;1.80;1.70;;;49.70;32.80;48.70;101697;;;;567850;247;23160;-81
2022/08/09 08:52:07;;;;;;;4.55;1.70;;;49.90;31.90;48.30;101701;;;;573301;245;23134;-78
2022/08/09 08:54:35;;;;;;;6.53;1.85;;;49.60;31.70;48.30;101692;;;;574353;247;23160;-81
2022/08/09 08:57:06;;;;;;;2.20;1.55;;;49.60;32.20;48.70;101699;;;;568876;247;23134;-81
2022/08/09 08:59:31;;;;;;;1.73;1.62;;;49.90;31.50;48.40;101703;;;;573344;247;23133;-82
2022/08/09 09:01:59;;;;;;;2.58;1.62;;;49.90;31.20;47.90;101709;;;;568640;247;23088;-84
2022/08/09 09:04:33;;;;;;;3.08;1.60;;;49.60;32.00;48.20;101703;;;;568239;247;23145;-85
2022/08/09 09:06:58;;;;;;;1.80;1.70;;;49.40;32.30;48.70;101704;;;;568336;247;23091;-85
2022/08/09 09:09:26;;;;;;;5.47;2.10;;;49.60;32.60;48.90;101709;;;;573499;247;23095;-83
2022/08/09 09:11:58;;;;;;;2.30;1.75;;;49.80;32.20;48.40;101716;;;;568528;247;23122;-80
2022/08/09 09:14:25;;;;;;;3.53;2.08;;;49.60;31.70;47.70;101719;;;;573944;247;24188;-81
2022/08/09 09:16:54;;;;;;;3.62;2.10;;;49.20;32.00;47.30;101710;;;;574653;247;23150;-83
2022/08/09 09:19:21;;;;;;;2.95;2.00;;;48.80;32.10;47.00;101716;;;;569316;247;23099;-86
2022/08/09 09:22:12;;;;;;;2.08;1.60;;;48.70;32.30;46.80;101721;;;;569234;247;23131;-85
2022/08/09 09:24:49;;;;;;;2.28;1.98;;;48.40;32.60;47.40;101721;;;;574713;247;23108;-83
2022/08/09 09:27:19;;;;;;;6.18;2.03;;;48.60;32.40;47.30;101725;;;;569114;247;23148;-83
2022/08/09 09:29:49;;;;;;;2.55;2.33;;;48.80;32.30;47.00;101732;;;;569065;249;23101;-81
2022/08/09 09:32:26;;;;;;;4.87;2.05;;;48.60;32.30;47.00;101722;;;;568453;247;23134;-80
2022/08/09 09:35:06;;;;;;;1.67;1.58;;;48.60;32.20;46.80;101722;;;;574226;247;23125;-78
2022/08/09 09:37:34;;;;;;;4.10;2.05;;;48.50;32.60;47.60;101722;;;;574128;247;23107;-77
2022/08/09 09:40:05;;;;;;;3.22;2.40;;;49.00;31.80;47.40;101727;;;;566836;247;35290;-79
2022/08/09 09:42:33;;;;;;;3.42;1.83;;;49.20;31.80;47.00;101729;;;;582330;247;23095;-81
2022/08/09 09:44:59;;;;;;;3.70;2.10;;;48.80;32.00;46.70;101730;;;;570748;247;35387;-79
2022/08/09 09:47:31;;;;;;;2.15;1.80;;;48.80;32.00;46.20;101730;;;;573827;247;24124;-78
2022/08/09 09:49:58;;;;;;;4.40;2.20;;;48.40;31.90;45.80;101728;;;;574276;247;23132;-83
2022/08/09 09:52:28;;;;;;;2.10;1.90;;;48.00;32.10;45.40;101726;;;;574820;247;23084;-83
2022/08/09 09:54:54;;;;;;;2.60;2.12;;;47.70;32.70;45.80;101736;;;;574867;247;23153;-82
2022/08/09 09:57:22;;;;;;;2.40;2.20;;;47.80;32.20;46.00;101735;;;;573535;246;23104;-81
2022/08/09 09:59:50;;;;;;;3.15;1.70;;;47.80;32.60;46.30;101722;;;;568564;247;23126;-82
2022/08/09 10:02:18;;;;;;;2.33;1.75;;;48.00;31.90;46.80;101727;;;;582579;246;23100;-84
2022/08/09 10:04:46;;;;;;;4.12;2.22;;;48.50;32.00;46.80;101724;;;;574728;246;23135;-84
2022/08/09 10:07:26;;;;;;;3.47;1.98;;;48.90;32.10;46.80;101725;;;;573626;246;23150;-82
2022/08/09 10:09:54;;;;;;;4.10;2.00;;;48.90;32.00;46.90;101735;;;;583215;246;23096;-84
2022/08/09 10:12:35;;;;;;;3.78;2.10;;;49.20;31.60;45.90;101723;;;;569390;247;23118;-84
2022/08/09 10:15:05;;;;;;;2.75;1.80;;;48.60;32.00;45.30;101721;;;;574267;247;23129;-84
2022/08/09 10:17:33;;;;;;;5.05;2.20;;;48.10;32.10;44.90;101722;;;;571843;247;24116;-86
2022/08/09 10:20:01;;;;;;;3.75;2.15;;;47.40;32.70;44.80;101724;;;;568990;247;23088;-84
2022/08/09 10:22:33;;;;;;;2.72;2.17;;;47.20;33.10;44.40;101730;;;;569016;247;23113;-82
2022/08/09 10:25:04;;;;;;;3.67;2.03;;;46.70;33.40;43.80;101731;;;;574023;246;23103;-83
2022/08/09 10:27:32;;;;;;;50.67;6.07;;;45.70;34.30;43.50;101732;;;;568526;247;25232;-81
2022/08/09 10:30:04;;;;;;;3.87;2.12;;;45.00;35.10;42.90;101730;;;;574160;247;23094;-82
2022/08/09 10:32:38;;;;;;;8.95;2.83;;;45.00;35.10;41.80;101734;;;;573880;247;23126;-78
2022/08/09 10:35:02;;;;;;;5.90;1.95;;;43.90;35.50;41.20;101736;;;;573691;246;23093;-83
2022/08/09 10:37:33;;;;;;;5.65;2.00;;;43.10;36.10;40.30;101733;;;;574035;246;23107;-85
2022/08/09 10:39:59;;;;;;;4.53;2.17;;;42.30;36.90;39.70;101745;;;;571828;247;24125;-80
2022/08/09 10:42:30;;;;;;;2.50;1.85;;;41.60;37.60;38.90;101734;;;;573817;247;23104;-80
2022/08/09 10:45:00;;;;;;;17.23;2.87;;;40.80;38.40;37.60;101737;;;;573308;247;23118;-80
2022/08/09 10:47:43;;;;;;;18.43;3.40;;;39.70;39.50;35.70;101722;;;;568945;247;35432;-80
2022/08/09 10:51:05;;;;;;;2.62;1.40;;;37.90;41.10;34.00;101732;;;;555224;252;23108;-77
2022/08/09 10:53:05;;;;;;;16.80;2.72;;;35.80;43.40;32.90;101730;;;;568793;249;23109;-80
2022/08/09 10:55:36;;;;;;;3.15;2.03;;;34.00;45.60;32.00;101728;;;;562752;249;35373;-81
2022/08/09 10:58:04;;;;;;;14.98;2.80;;;32.70;48.10;30.80;101724;;;;568029;249;23106;-81
2022/08/09 11:00:36;;;;;;;1.87;1.58;;;31.40;50.30;29.60;101717;;;;582461;246;23104;-80
2022/08/09 11:03:04;;;;;;;19.30;3.58;;;30.10;51.60;28.80;101720;;;;568136;248;23137;-81
2022/08/09 11:05:28;;;;;;;12.52;2.53;;;29.20;53.20;28.00;101712;;;;572820;247;24104;-80
2022/08/09 11:08:00;;;;;;;2.23;2.03;;;27.70;55.70;27.00;101706;;;;573667;247;23103;-82
2022/08/09 11:10:43;;;;;;;7.63;2.07;;;27.60;56.30;26.40;101707;;;;569264;249;23162;-80
2022/08/09 11:13:18;;;;;;;9.43;1.80;;;26.80;57.40;25.70;101712;;;;567490;247;23107;-78
2022/08/09 11:15:42;;;;;;;10.77;2.57;;;26.20;59.00;25.20;101697;;;;558656;251;23206;-78
2022/08/09 11:18:14;;;;;;;6.87;2.13;;;25.30;62.30;24.80;101695;;;;583937;245;23125;-77